Terminal Aerodrome Forecast
Issued by NWS

Home | Current Version | Previous Version | Graphics & Text | Print | Product List | Glossary On
Versions: 1 2 3 4 5 6 7 8 9 10 11 12 13 14 15 16 17 18 19 20 21
229
FTUS41 KCLE 142320
TAFFDY
TAF
KFDY 142320Z 1500/1524 VRB03KT P6SM OVC015
     FM150200 VRB03KT P6SM OVC045
     FM150400 VRB03KT P6SM BKN250=

USA.gov is the U.S. government's official web portal to all federal, state and local government web resources and services.